createdAt,value
2018-06-02T00:02:41.175Z,10.27
2018-06-02T00:07:32.082Z,9.60
2018-06-02T00:12:23.000Z,9.70
2018-06-02T00:17:13.890Z,8.97
2018-06-02T00:22:04.874Z,8.30
2018-06-02T00:26:55.783Z,9.43
2018-06-02T00:31:46.686Z,10.40
2018-06-02T00:36:38.317Z,9.73
2018-06-02T00:41:29.240Z,10.30
2018-06-02T00:46:20.151Z,9.80
2018-06-02T00:51:11.059Z,9.27
2018-06-02T00:56:02.000Z,10.37
2018-06-02T01:00:52.893Z,9.57
2018-06-02T01:05:43.779Z,9.67
2018-06-02T01:10:35.402Z,9.63
2018-06-02T01:15:26.293Z,9.67
2018-06-02T01:20:18.052Z,10.47
2018-06-02T01:25:09.693Z,9.33
2018-06-02T01:30:00.676Z,9.70
2018-06-02T01:34:51.612Z,9.37
2018-06-02T01:39:42.509Z,9.57
2018-06-02T01:44:33.432Z,9.97
2018-06-02T01:49:24.328Z,8.90
2018-06-02T01:54:15.237Z,9.37
2018-06-02T01:59:06.142Z,9.30
2018-06-02T02:03:57.822Z,10.53
2018-06-02T02:08:49.563Z,9.93
2018-06-02T02:13:40.459Z,12.70
2018-06-02T02:18:31.399Z,11.13
2018-06-02T02:23:22.320Z,10.87
2018-06-02T02:28:13.212Z,10.80
2018-06-02T02:33:04.156Z,10.47
2018-06-02T02:37:55.074Z,10.73
2018-06-02T02:42:45.977Z,11.20
2018-06-02T02:47:36.872Z,10.23
2018-06-02T02:52:27.760Z,12.43
2018-06-02T02:57:19.405Z,12.27
2018-06-02T03:02:11.049Z,12.47
2018-06-02T03:07:01.992Z,12.37
2018-06-02T03:11:52.913Z,12.90
2018-06-02T03:16:43.848Z,13.93
2018-06-02T03:21:34.740Z,14.90
2018-06-02T03:26:25.687Z,14.00
2018-06-02T03:31:16.573Z,13.80
2018-06-02T03:36:07.524Z,14.63
2018-06-02T03:40:58.449Z,14.53
2018-06-02T03:45:49.344Z,13.60
2018-06-02T03:50:40.289Z,13.20
2018-06-02T03:55:31.176Z,13.40
2018-06-02T04:00:22.081Z,12.80
2018-06-02T04:05:12.988Z,13.33
2018-06-02T04:10:03.975Z,14.43
2018-06-02T04:14:54.971Z,14.20
2018-06-02T04:19:45.861Z,13.73
2018-06-02T04:24:36.766Z,14.30
2018-06-02T04:29:27.659Z,14.30
2018-06-02T04:34:18.648Z,13.37
2018-06-02T04:39:09.535Z,15.83
2018-06-02T04:44:00.433Z,14.83
2018-06-02T04:48:52.136Z,15.43
2018-06-02T04:53:43.020Z,14.87
2018-06-02T04:58:33.918Z,13.90
2018-06-02T05:03:24.884Z,13.33
2018-06-02T05:08:15.779Z,14.53
2018-06-02T05:13:06.677Z,16.40
2018-06-02T05:17:57.567Z,15.13
2018-06-02T05:22:49.265Z,16.10
2018-06-02T05:27:40.172Z,14.73
2018-06-02T05:32:31.072Z,14.50
2018-06-02T05:37:22.025Z,17.20
2018-06-02T05:42:12.908Z,15.57
2018-06-02T05:47:03.866Z,14.70
2018-06-02T05:51:54.760Z,16.77
2018-06-02T05:56:45.649Z,15.73
2018-06-02T06:01:37.284Z,15.03
2018-06-02T06:06:28.924Z,15.33
2018-06-02T06:11:19.886Z,15.13
2018-06-02T06:16:10.793Z,14.63
2018-06-02T06:21:01.693Z,16.10
2018-06-02T06:25:52.644Z,15.63
2018-06-02T06:30:43.541Z,14.53
2018-06-02T06:35:34.432Z,15.93
2018-06-02T06:40:26.064Z,14.40
2018-06-02T06:45:17.696Z,14.90
2018-06-02T06:50:09.337Z,14.50
2018-06-02T06:55:00.252Z,13.77
2018-06-02T06:59:51.884Z,14.83
2018-06-02T07:04:43.556Z,13.23
2018-06-02T07:09:34.439Z,13.93
2018-06-02T07:14:26.072Z,12.40
2018-06-02T07:19:17.940Z,13.23
2018-06-02T07:24:08.831Z,12.73
2018-06-02T07:29:00.527Z,13.10
2018-06-02T07:33:51.425Z,12.63
2018-06-02T07:38:42.397Z,13.67
2018-06-02T07:43:33.284Z,13.73
2018-06-02T07:48:24.181Z,14.00
2018-06-02T07:53:15.067Z,14.17
2018-06-02T07:58:06.136Z,15.37
2018-06-02T08:02:57.032Z,15.60
2018-06-02T08:07:47.936Z,14.40
2018-06-02T08:12:38.893Z,16.83
2018-06-02T08:17:29.784Z,15.93
2018-06-02T08:22:20.686Z,16.80
2018-06-02T08:27:11.580Z,16.10
2018-06-02T08:32:03.234Z,16.30
2018-06-02T08:36:54.132Z,15.40
2018-06-02T08:41:45.768Z,15.23
2018-06-02T08:46:37.493Z,16.67
2018-06-02T08:51:28.388Z,15.07
2018-06-02T08:56:19.329Z,16.10
2018-06-02T09:01:10.228Z,15.70
2018-06-02T09:06:01.173Z,17.10
2018-06-02T09:10:52.199Z,15.17
2018-06-02T09:15:43.836Z,16.60
2018-06-02T09:20:35.509Z,16.57
2018-06-02T09:25:26.454Z,19.43
2018-06-02T09:30:17.373Z,19.73
2018-06-02T09:35:08.281Z,20.20
2018-06-02T09:39:59.170Z,19.23
2018-06-02T09:44:50.129Z,23.00
2018-06-02T09:49:41.057Z,21.20
2018-06-02T09:54:31.965Z,23.07
2018-06-02T09:59:22.863Z,20.37
2018-06-02T10:04:13.806Z,19.83
2018-06-02T10:09:04.707Z,22.80
2018-06-02T10:13:55.596Z,23.43
2018-06-02T10:18:46.558Z,24.03
2018-06-02T10:23:37.489Z,22.57
2018-06-02T10:28:28.417Z,23.27
2018-06-02T10:33:19.313Z,22.50
2018-06-02T10:38:10.217Z,25.00
2018-06-02T10:43:01.158Z,20.37
2018-06-02T10:47:52.151Z,23.30
2018-06-02T10:52:43.140Z,22.43
2018-06-02T10:57:34.786Z,23.30
2018-06-02T11:02:26.520Z,23.20
2018-06-02T11:07:17.619Z,24.17
2018-06-02T11:12:08.508Z,23.33
2018-06-02T11:16:59.456Z,24.73
2018-06-02T11:21:50.385Z,25.40
2018-06-02T11:26:42.019Z,24.57
2018-06-02T11:31:33.725Z,24.60
2018-06-02T11:36:24.624Z,22.70
2018-06-02T11:41:15.520Z,25.90
2018-06-02T11:46:06.475Z,24.00
2018-06-02T11:50:57.396Z,24.40
2018-06-02T11:55:48.380Z,24.97
2018-06-02T12:00:39.396Z,23.07
2018-06-02T12:05:30.536Z,22.00
2018-06-02T12:10:21.637Z,21.97
2018-06-02T12:15:14.288Z,23.07
2018-06-02T12:20:06.001Z,22.07
2018-06-02T12:24:56.922Z,19.50
2018-06-02T12:29:47.864Z,17.73
2018-06-02T12:34:39.507Z,17.70
2018-06-02T12:39:31.139Z,24.97
2018-06-02T12:44:22.763Z,18.30
2018-06-02T12:49:14.404Z,18.13
2018-06-02T12:54:05.403Z,18.97
2018-06-02T12:58:56.305Z,17.40
2018-06-02T13:03:47.216Z,18.33
2018-06-02T13:08:38.115Z,18.73
2018-06-02T13:13:29.005Z,19.03
2018-06-02T13:18:20.641Z,19.53
2018-06-02T13:23:12.281Z,17.77
2018-06-02T13:28:03.216Z,17.17
2018-06-02T13:32:54.386Z,16.33
2018-06-02T13:37:45.618Z,13.93
2018-06-02T13:42:36.532Z,15.03
2018-06-02T13:47:27.442Z,17.10
2018-06-02T13:52:18.381Z,15.47
2018-06-02T13:57:09.292Z,16.53
2018-06-02T14:02:00.179Z,17.33
2018-06-02T14:06:51.114Z,15.30
2018-06-02T14:11:42.052Z,16.47
2018-06-02T14:16:32.944Z,16.43
2018-06-02T14:21:23.939Z,17.77
2018-06-02T14:26:14.877Z,16.37
2018-06-02T14:31:05.772Z,16.67
2018-06-02T14:35:57.456Z,14.63
2018-06-02T14:40:48.389Z,16.67
2018-06-02T14:45:39.285Z,16.70
2018-06-02T14:50:30.171Z,16.53
2018-06-02T14:55:21.963Z,16.67
2018-06-02T15:00:12.891Z,19.83
2018-06-02T15:05:03.913Z,20.73
2018-06-02T15:09:55.688Z,18.33
2018-06-02T15:14:47.331Z,21.20
2018-06-02T15:19:38.253Z,21.80
2018-06-02T15:24:29.208Z,16.07
2018-06-02T15:29:20.117Z,16.30
2018-06-02T15:34:11.095Z,16.10
2018-06-02T15:39:02.740Z,15.60
2018-06-02T15:43:53.712Z,15.97
2018-06-02T15:48:44.620Z,16.80
2018-06-02T15:53:35.513Z,17.93
2018-06-02T15:58:26.436Z,17.37
2018-06-02T16:03:17.337Z,18.40
2018-06-02T16:08:08.245Z,17.40
2018-06-02T16:12:59.924Z,18.37
2018-06-02T16:17:50.875Z,17.53
2018-06-02T16:22:41.778Z,16.93
2018-06-02T16:27:32.696Z,18.47
2018-06-02T16:32:23.617Z,17.40
2018-06-02T16:37:14.516Z,18.57
2018-06-02T16:42:05.420Z,20.00
2018-06-02T16:46:56.303Z,18.10
2018-06-02T16:51:47.942Z,17.87
2018-06-02T16:56:39.571Z,20.23
2018-06-02T17:01:31.265Z,19.43
2018-06-02T17:06:22.180Z,21.13
2018-06-02T17:11:13.301Z,22.77
2018-06-02T17:16:04.363Z,20.63
2018-06-02T17:20:55.305Z,20.63
2018-06-02T17:25:46.206Z,20.53
2018-06-02T17:30:37.840Z,22.43
2018-06-02T17:35:29.477Z,18.90
2018-06-02T17:40:21.103Z,18.97
2018-06-02T17:45:12.088Z,22.10
2018-06-02T17:50:02.972Z,20.90
2018-06-02T17:54:53.924Z,18.60
2018-06-02T17:59:44.850Z,18.63
2018-06-02T18:04:35.740Z,18.63
2018-06-02T18:09:26.689Z,18.00
2018-06-02T18:14:17.576Z,19.50
2018-06-02T18:19:08.588Z,20.90
2018-06-02T18:23:59.479Z,21.73
2018-06-02T18:28:51.181Z,17.60
2018-06-02T18:33:42.074Z,17.13
2018-06-02T18:38:33.017Z,17.80
2018-06-02T18:43:24.046Z,18.40
2018-06-02T18:48:14.919Z,17.20
2018-06-02T18:53:05.812Z,17.33
2018-06-02T18:57:57.453Z,16.33
2018-06-02T19:02:49.087Z,16.57
2018-06-02T19:07:40.944Z,16.73
2018-06-02T19:12:32.153Z,15.20
2018-06-02T19:17:23.889Z,17.03
2018-06-02T19:22:15.528Z,17.30
2018-06-02T19:27:06.445Z,17.60
2018-06-02T19:31:58.085Z,17.33
2018-06-02T19:36:49.060Z,15.53
2018-06-02T19:41:40.024Z,17.40
2018-06-02T19:46:31.708Z,16.27
2018-06-02T19:51:22.639Z,16.10
2018-06-02T19:56:13.549Z,16.60
2018-06-02T20:01:04.440Z,17.90
2018-06-02T20:05:56.141Z,17.00
2018-06-02T20:10:47.781Z,15.70
2018-06-02T20:15:39.480Z,17.77
2018-06-02T20:20:30.388Z,15.80
2018-06-02T20:25:21.259Z,15.17
2018-06-02T20:30:12.974Z,15.57
2018-06-02T20:35:03.992Z,15.60
2018-06-02T20:39:55.005Z,14.60
2018-06-02T20:44:46.648Z,16.57
2018-06-02T20:49:37.545Z,18.63
2018-06-02T20:54:28.455Z,16.83
2018-06-02T20:59:19.371Z,16.20
2018-06-02T21:04:10.281Z,16.63
2018-06-02T21:09:01.221Z,17.87
2018-06-02T21:13:52.136Z,16.80
2018-06-02T21:18:43.032Z,20.80
2018-06-02T21:23:33.972Z,16.23
2018-06-02T21:28:24.887Z,16.10
2018-06-02T21:33:15.780Z,17.47
2018-06-02T21:38:06.677Z,16.60
2018-06-02T21:42:58.371Z,15.07
2018-06-02T21:47:49.264Z,16.23
2018-06-02T21:52:40.196Z,17.97
2018-06-02T21:57:31.101Z,18.60
2018-06-02T22:02:22.004Z,17.07
2018-06-02T22:07:12.945Z,19.40
2018-06-02T22:12:03.873Z,18.97
2018-06-02T22:16:57.679Z,21.23
2018-06-02T22:21:48.576Z,18.80
2018-06-02T22:26:39.469Z,18.90
2018-06-02T22:31:30.372Z,20.60
2018-06-02T22:36:21.341Z,21.37
2018-06-02T22:41:12.241Z,23.80
2018-06-02T22:46:03.196Z,20.83
2018-06-02T22:50:54.093Z,22.33
2018-06-02T22:55:44.999Z,25.67
2018-06-02T23:00:35.920Z,22.70
2018-06-02T23:05:26.840Z,24.73
2018-06-02T23:10:17.752Z,23.47
2018-06-02T23:15:08.684Z,20.70
2018-06-02T23:19:59.600Z,22.23
2018-06-02T23:24:50.500Z,21.30
2018-06-02T23:29:41.437Z,23.40
2018-06-02T23:34:32.348Z,22.60
2018-06-02T23:39:23.233Z,19.83
2018-06-02T23:44:14.119Z,20.40
2018-06-02T23:49:05.016Z,24.40
2018-06-02T23:53:55.916Z,22.60
2018-06-02T23:58:46.844Z,25.60
